Schedule Details

Flight Number: CPX796
Departure: Guarulhos International Airport (SBGR) at N/A
Arrival: Miami International Airport (KMIA) at N/A
Route: UKBE1C UKBEV ASTOB UM417 OBGAT UZ21 VUMPI UL795 URSUS FLIPR6


Current Weather Information
SBGR 152000Z 29002KT 9000 -RA FEW007 BKN050 23/22 Q1010
KMIA 151953Z 14009KT 10SM SCT032 BKN250 26/19 A2993 RMK AO2 SLP136 T02560189

Route Map